Terminal Aerodrome Forecast
Issued by NWS

Current Version | Previous Version | Text Only | Print | Product List | Glossary On
Versions: 1 2 3 4 5 6 7 8 9 10 11 12 13 14 15 16 17 18 19 20 21 22 23 24 25 26 27 28 29 30 31 32
000
FTUS41 KCTP 191752
TAFUNV
TAF
KUNV 191752Z 1918/2018 00000KT P6SM SCT020
     FM192300 00000KT P6SM SCT250
     FM200730 VRB02KT 2SM BR VCFG SCT005
     FM200900 00000KT 1/2SM FG VV002
     FM201230 00000KT 3SM BR BKN015
     FM201330 VRB03KT P6SM SKC=

USA.gov is the U.S. government's official web portal to all federal, state and local government web resources and services.